sensor_id;sensor_type;location;lat;lon;timestamp;pressure;altitude;pressure_sealevel;temperature;humidity
22930;BME280;11630;42.660;23.292;2023-04-08T00:02:25;68205.17;;;6.07;98.69
22930;BME280;11630;42.660;23.292;2023-04-08T00:04:56;68197.33;;;6.01;99.27
22930;BME280;11630;42.660;23.292;2023-04-08T00:07:26;68196.77;;;5.98;99.79
22930;BME280;11630;42.660;23.292;2023-04-08T00:09:57;68188.66;;;5.93;100.00
22930;BME280;11630;42.660;23.292;2023-04-08T00:12:28;68205.97;;;6.06;100.00
22930;BME280;11630;42.660;23.292;2023-04-08T00:14:59;68207.88;;;6.09;100.00
22930;BME280;11630;42.660;23.292;2023-04-08T00:17:30;68185.66;;;5.86;100.00
22930;BME280;11630;42.660;23.292;2023-04-08T00:20:01;68177.26;;;5.80;100.00
22930;BME280;11630;42.660;23.292;2023-04-08T00:22:31;68168.05;;;5.74;100.00
22930;BME280;11630;42.660;23.292;2023-04-08T00:25:00;68180.52;;;5.83;100.00
22930;BME280;11630;42.660;23.292;2023-04-08T00:27:30;68193.24;;;5.96;100.00
22930;BME280;11630;42.660;23.292;2023-04-08T00:30:01;68195.94;;;5.96;100.00
22930;BME280;11630;42.660;23.292;2023-04-08T00:32:32;68187.84;;;5.91;100.00
22930;BME280;11630;42.660;23.292;2023-04-08T00:35:03;68174.56;;;5.80;100.00
22930;BME280;11630;42.660;23.292;2023-04-08T00:37:34;68171.00;;;5.73;100.00
22930;BME280;11630;42.660;23.292;2023-04-08T00:40:05;68172.91;;;5.76;100.00
22930;BME280;11630;42.660;23.292;2023-04-08T00:42:35;68172.67;;;5.77;100.00
22930;BME280;11630;42.660;23.292;2023-04-08T00:45:07;68170.22;;;5.76;100.00
22930;BME280;11630;42.660;23.292;2023-04-08T00:47:37;68163.72;;;5.70;100.00
22930;BME280;11630;42.660;23.292;2023-04-08T00:50:09;68154.54;;;5.64;100.00
22930;BME280;11630;42.660;23.292;2023-04-08T00:52:40;68181.34;;;5.85;100.00
22930;BME280;11630;42.660;23.292;2023-04-08T00:55:11;68197.88;;;6.04;100.00
22930;BME280;11630;42.660;23.292;2023-04-08T00:57:42;68208.67;;;6.08;99.59
22930;BME280;11630;42.660;23.292;2023-04-08T01:00:14;68207.61;;;6.10;99.56
22930;BME280;11630;42.660;23.292;2023-04-08T01:03:13;68231.98;;;6.30;99.76
22930;BME280;11630;42.660;23.292;2023-04-08T01:08:23;68227.11;;;6.28;100.00
22930;BME280;11630;42.660;23.292;2023-04-08T01:10:58;68231.70;;;6.28;100.00
22930;BME280;11630;42.660;23.292;2023-04-08T01:13:30;68238.48;;;6.38;99.91
22930;BME280;11630;42.660;23.292;2023-04-08T01:16:01;68244.44;;;6.41;100.00
22930;BME280;11630;42.660;23.292;2023-04-08T01:18:33;68231.70;;;6.28;100.00
22930;BME280;11630;42.660;23.292;2023-04-08T01:21:05;68231.16;;;6.30;100.00
22930;BME280;11630;42.660;23.292;2023-04-08T01:23:53;68200.28;;;6.00;100.00
22930;BME280;11630;42.660;23.292;2023-04-08T01:26:22;68215.20;;;6.17;100.00
22930;BME280;11630;42.660;23.292;2023-04-08T01:28:55;68222.77;;;6.21;100.00
22930;BME280;11630;42.660;23.292;2023-04-08T01:31:28;68244.17;;;6.40;100.00
22930;BME280;11630;42.660;23.292;2023-04-08T01:34:03;68253.11;;;6.49;100.00
22930;BME280;11630;42.660;23.292;2023-04-08T01:36:34;68269.38;;;6.64;99.79
22930;BME280;11630;42.660;23.292;2023-04-08T01:39:08;68251.77;;;6.49;100.00
22930;BME280;11630;42.660;23.292;2023-04-08T01:41:40;68259.34;;;6.54;100.00
22930;BME280;11630;42.660;23.292;2023-04-08T01:44:12;68259.63;;;6.60;99.75
22930;BME280;11630;42.660;23.292;2023-04-08T01:46:43;68258.83;;;6.58;99.45
22930;BME280;11630;42.660;23.292;2023-04-08T01:49:15;68258.27;;;6.55;100.00
22930;BME280;11630;42.660;23.292;2023-04-08T01:51:47;68246.06;;;6.45;100.00
22930;BME280;11630;42.660;23.292;2023-04-08T01:54:18;68235.23;;;6.33;100.00
22930;BME280;11630;42.660;23.292;2023-04-08T01:56:50;68227.65;;;6.26;100.00
22930;BME280;11630;42.660;23.292;2023-04-08T01:59:22;68209.50;;;6.10;100.00
22930;BME280;11630;42.660;23.292;2023-04-08T02:01:53;68211.37;;;6.08;100.00
22930;BME280;11630;42.660;23.292;2023-04-08T02:04:24;68214.09;;;6.11;100.00
22930;BME280;11630;42.660;23.292;2023-04-08T02:06:56;68225.47;;;6.21;100.00
22930;BME280;11630;42.660;23.292;2023-04-08T02:09:27;68237.67;;;6.34;100.00
22930;BME280;11630;42.660;23.292;2023-04-08T02:11:58;68246.05;;;6.40;99.94
22930;BME280;11630;42.660;23.292;2023-04-08T02:14:29;68239.57;;;6.39;100.00
22930;BME280;11630;42.660;23.292;2023-04-08T02:17:04;68238.46;;;6.33;100.00
22930;BME280;11630;42.660;23.292;2023-04-08T02:19:35;68245.25;;;6.41;100.00
22930;BME280;11630;42.660;23.292;2023-04-08T02:22:10;68257.72;;;6.52;100.00
22930;BME280;11630;42.660;23.292;2023-04-08T02:24:40;68254.20;;;6.53;100.00
22930;BME280;11630;42.660;23.292;2023-04-08T02:27:13;68242.83;;;6.42;100.00
22930;BME280;11630;42.660;23.292;2023-04-08T02:29:45;68249.58;;;6.45;100.00
22930;BME280;11630;42.660;23.292;2023-04-08T02:32:17;68225.73;;;6.23;100.00
22930;BME280;11630;42.660;23.292;2023-04-08T02:34:49;68210.58;;;6.11;100.00
22930;BME280;11630;42.660;23.292;2023-04-08T02:37:20;68195.95;;;5.98;100.00
22930;BME280;11630;42.660;23.292;2023-04-08T02:39:51;68174.26;;;5.76;100.00
22930;BME280;11630;42.660;23.292;2023-04-08T02:42:21;68181.03;;;5.81;100.00
22930;BME280;11630;42.660;23.292;2023-04-08T02:44:52;68160.73;;;5.66;100.00
22930;BME280;11630;42.660;23.292;2023-04-08T02:47:22;68150.17;;;5.55;100.00
22930;BME280;11630;42.660;23.292;2023-04-08T02:49:53;68149.62;;;5.54;100.00
22930;BME280;11630;42.660;23.292;2023-04-08T02:52:24;68152.06;;;5.58;100.00
22930;BME280;11630;42.660;23.292;2023-04-08T02:54:55;68149.92;;;5.58;100.00
22930;BME280;11630;42.660;23.292;2023-04-08T02:57:26;68141.25;;;5.48;100.00
22930;BME280;11630;42.660;23.292;2023-04-08T02:59:56;68146.66;;;5.53;100.00
22930;BME280;11630;42.660;23.292;2023-04-08T03:02:28;68162.34;;;5.65;100.00
22930;BME280;11630;42.660;23.292;2023-04-08T03:04:59;68169.66;;;5.73;100.00
22930;BME280;11630;42.660;23.292;2023-04-08T03:07:30;68165.85;;;5.67;100.00
22930;BME280;11630;42.660;23.292;2023-04-08T03:10:02;68177.82;;;5.83;100.00
22930;BME280;11630;42.660;23.292;2023-04-08T03:12:33;68184.58;;;5.88;100.00
22930;BME280;11630;42.660;23.292;2023-04-08T03:15:05;68217.34;;;6.16;100.00
22930;BME280;11630;42.660;23.292;2023-04-08T03:17:35;68215.72;;;6.15;100.00
22930;BME280;11630;42.660;23.292;2023-04-08T03:20:06;68228.16;;;6.21;100.00
22930;BME280;11630;42.660;23.292;2023-04-08T03:22:36;68226.84;;;6.26;100.00
22930;BME280;11630;42.660;23.292;2023-04-08T03:25:06;68226.27;;;6.23;100.00
22930;BME280;11630;42.660;23.292;2023-04-08T03:27:37;68203.27;;;6.04;100.00
22930;BME280;11630;42.660;23.292;2023-04-08T03:30:09;68205.44;;;6.08;100.00
22930;BME280;11630;42.660;23.292;2023-04-08T03:32:39;68199.73;;;6.02;100.00
22930;BME280;11630;42.660;23.292;2023-04-08T03:35:11;68189.45;;;5.92;100.00
22930;BME280;11630;42.660;23.292;2023-04-08T03:37:41;68192.42;;;5.94;100.00
22930;BME280;11630;42.660;23.292;2023-04-08T03:40:12;68184.30;;;5.86;100.00
22930;BME280;11630;42.660;23.292;2023-04-08T03:42:42;68193.80;;;5.96;100.00
22930;BME280;11630;42.660;23.292;2023-04-08T03:45:13;68212.71;;;6.08;100.00
22930;BME280;11630;42.660;23.292;2023-04-08T03:47:45;68232.76;;;6.27;100.00
22930;BME280;11630;42.660;23.292;2023-04-08T03:50:16;68251.20;;;6.46;100.00
22930;BME280;11630;42.660;23.292;2023-04-08T03:52:46;68242.56;;;6.41;100.00
22930;BME280;11630;42.660;23.292;2023-04-08T03:55:17;68234.41;;;6.31;100.00
22930;BME280;11630;42.660;23.292;2023-04-08T03:57:47;68230.05;;;6.24;100.00
22930;BME280;11630;42.660;23.292;2023-04-08T04:00:17;68227.11;;;6.28;100.00
22930;BME280;11630;42.660;23.292;2023-04-08T04:02:48;68263.14;;;6.60;100.00
22930;BME280;11630;42.660;23.292;2023-04-08T04:05:19;68242.56;;;6.41;100.00
22930;BME280;11630;42.660;23.292;2023-04-08T04:07:51;68253.36;;;6.46;100.00
22930;BME280;11630;42.660;23.292;2023-04-08T04:10:21;68222.78;;;6.24;100.00
22930;BME280;11630;42.660;23.292;2023-04-08T04:12:53;68185.64;;;5.84;100.00
22930;BME280;11630;42.660;23.292;2023-04-08T04:15:23;68153.70;;;5.59;100.00
22930;BME280;11630;42.660;23.292;2023-04-08T04:17:54;68143.13;;;5.48;100.00
22930;BME280;11630;42.660;23.292;2023-04-08T04:20:24;68137.42;;;5.42;100.00
22930;BME280;11630;42.660;23.292;2023-04-08T04:22:57;68136.64;;;5.45;100.00
22930;BME280;11630;42.660;23.292;2023-04-08T04:25:30;68131.78;;;5.43;100.00
22930;BME280;11630;42.660;23.292;2023-04-08T04:28:01;68138.25;;;5.44;100.00
22930;BME280;11630;42.660;23.292;2023-04-08T04:30:31;68151.80;;;5.59;100.00
22930;BME280;11630;42.660;23.292;2023-04-08T04:33:02;68165.33;;;5.69;100.00
22930;BME280;11630;42.660;23.292;2023-04-08T04:35:33;68180.52;;;5.83;100.00
22930;BME280;11630;42.660;23.292;2023-04-08T04:38:03;68184.59;;;5.90;100.00
22930;BME280;11630;42.660;23.292;2023-04-08T04:40:34;68188.66;;;5.93;100.00
22930;BME280;11630;42.660;23.292;2023-04-08T04:43:04;68205.95;;;6.04;100.00
22930;BME280;11630;42.660;23.292;2023-04-08T04:45:35;68216.55;;;6.19;100.00
22930;BME280;11630;42.660;23.292;2023-04-08T04:48:05;68234.16;;;6.34;100.00
22930;BME280;11630;42.660;23.292;2023-04-08T04:50:36;68232.23;;;6.29;100.00
22930;BME280;11630;42.660;23.292;2023-04-08T04:53:07;68224.13;;;6.21;100.00
22930;BME280;11630;42.660;23.292;2023-04-08T04:55:36;68241.73;;;6.39;100.00
22930;BME280;11630;42.660;23.292;2023-04-08T04:58:07;68259.09;;;6.57;100.00
22930;BME280;11630;42.660;23.292;2023-04-08T05:00:38;68271.24;;;6.62;97.95
22930;BME280;11630;42.660;23.292;2023-04-08T05:03:09;68269.38;;;6.64;96.83
22930;BME280;11630;42.660;23.292;2023-04-08T05:05:40;68272.34;;;6.66;96.34
22930;BME280;11630;42.660;23.292;2023-04-08T05:08:11;68267.77;;;6.65;96.59
22930;BME280;11630;42.660;23.292;2023-04-08T05:10:41;68272.06;;;6.64;96.68
22930;BME280;11630;42.660;23.292;2023-04-08T05:13:13;68274.78;;;6.69;96.51
22930;BME280;11630;42.660;23.292;2023-04-08T05:15:43;68263.98;;;6.64;96.33
22930;BME280;11630;42.660;23.292;2023-04-08T05:18:14;68257.99;;;6.54;96.54
22930;BME280;11630;42.660;23.292;2023-04-08T05:20:44;68231.70;;;6.28;100.00
22930;BME280;11630;42.660;23.292;2023-04-08T05:23:16;68211.92;;;6.09;100.00
22930;BME280;11630;42.660;23.292;2023-04-08T05:25:48;68202.47;;;6.04;100.00
22930;BME280;11630;42.660;23.292;2023-04-08T05:28:19;68198.95;;;6.02;100.00
22930;BME280;11630;42.660;23.292;2023-04-08T05:30:53;68218.42;;;6.17;100.00
22930;BME280;11630;42.660;23.292;2023-04-08T05:33:23;68237.11;;;6.33;100.00
22930;BME280;11630;42.660;23.292;2023-04-08T05:35:54;68259.34;;;6.54;100.00
22930;BME280;11630;42.660;23.292;2023-04-08T05:41:02;68246.89;;;6.47;100.00
22930;BME280;11630;42.660;23.292;2023-04-08T05:43:31;68235.50;;;6.34;100.00
22930;BME280;11630;42.660;23.292;2023-04-08T05:46:11;68229.54;;;6.29;100.00
22930;BME280;11630;42.660;23.292;2023-04-08T05:48:41;68238.73;;;6.35;100.00
22930;BME280;11630;42.660;23.292;2023-04-08T05:51:15;68246.61;;;6.43;100.00
22930;BME280;11630;42.660;23.292;2023-04-08T05:53:47;68265.31;;;6.62;100.00
22930;BME280;11630;42.660;23.292;2023-04-08T05:56:18;68305.71;;;7.02;100.00
22930;BME280;11630;42.660;23.292;2023-04-08T05:58:49;68307.58;;;6.98;100.00
22930;BME280;11630;42.660;23.292;2023-04-08T06:01:20;68312.20;;;7.06;99.76
22930;BME280;11630;42.660;23.292;2023-04-08T06:03:51;68309.19;;;6.97;99.04
22930;BME280;11630;42.660;23.292;2023-04-08T06:06:23;68325.74;;;7.13;97.23
22930;BME280;11630;42.660;23.292;2023-04-08T06:08:53;68320.86;;;7.09;97.23
22930;BME280;11630;42.660;23.292;2023-04-08T06:11:24;68376.70;;;7.58;94.89
22930;BME280;11630;42.660;23.292;2023-04-08T06:13:53;68374.30;;;7.62;93.68
22930;BME280;11630;42.660;23.292;2023-04-08T06:16:24;68379.45;;;7.63;92.85
22930;BME280;11630;42.660;23.292;2023-04-08T06:18:56;68411.46;;;7.97;91.41
22930;BME280;11630;42.660;23.292;2023-04-08T06:21:26;68424.72;;;8.00;91.47
22930;BME280;11630;42.660;23.292;2023-04-08T06:23:57;68432.61;;;8.11;91.83
22930;BME280;11630;42.660;23.292;2023-04-08T06:26:28;68430.73;;;8.11;91.24
22930;BME280;11630;42.660;23.292;2023-04-08T06:28:59;68401.97;;;7.84;91.87
22930;BME280;11630;42.660;23.292;2023-04-08T06:31:30;68438.34;;;8.18;91.79
22930;BME280;11630;42.660;23.292;2023-04-08T06:34:01;68412.02;;;7.97;91.24
22930;BME280;11630;42.660;23.292;2023-04-08T06:36:32;68382.16;;;7.67;92.40
22930;BME280;11630;42.660;23.292;2023-04-08T06:39:03;68417.16;;;7.98;92.19
22930;BME280;11630;42.660;23.292;2023-04-08T06:41:34;68400.88;;;7.83;92.72
22930;BME280;11630;42.660;23.292;2023-04-08T06:44:05;68424.75;;;8.03;92.85
22930;BME280;11630;42.660;23.292;2023-04-08T06:46:36;68433.70;;;8.12;91.19
22930;BME280;11630;42.660;23.292;2023-04-08T06:49:06;68463.06;;;8.44;89.30
22930;BME280;11630;42.660;23.292;2023-04-08T06:51:37;68468.48;;;8.46;97.24
22930;BME280;11630;42.660;23.292;2023-04-08T06:54:07;68697.02;;;10.59;100.00
22930;BME280;11630;42.660;23.292;2023-04-08T06:56:41;68812.13;;;11.58;100.00
22930;BME280;11630;42.660;23.292;2023-04-08T06:59:13;68947.50;;;12.85;100.00
22930;BME280;11630;42.660;23.292;2023-04-08T07:01:44;68738.89;;;10.92;84.08
22930;BME280;11630;42.660;23.292;2023-04-08T07:04:14;68633.36;;;9.96;82.59
22930;BME280;11630;42.660;23.292;2023-04-08T07:06:45;68602.92;;;9.71;83.61
22930;BME280;11630;42.660;23.292;2023-04-08T07:09:16;68564.06;;;9.34;85.25
22930;BME280;11630;42.660;23.292;2023-04-08T07:11:50;68543.97;;;9.16;89.29
22930;BME280;11630;42.660;23.292;2023-04-08T07:14:20;68560.80;;;9.28;87.57
22930;BME280;11630;42.660;23.292;2023-04-08T07:16:51;68552.11;;;9.25;87.63
22930;BME280;11630;42.660;23.292;2023-04-08T07:19:22;68565.13;;;9.30;87.80
22930;BME280;11630;42.660;23.292;2023-04-08T07:21:53;68490.45;;;8.65;91.53
22930;BME280;11630;42.660;23.292;2023-04-08T07:24:23;68499.97;;;8.78;92.60
22930;BME280;11630;42.660;23.292;2023-04-08T07:26:53;68523.88;;;9.00;89.53
22930;BME280;11630;42.660;23.292;2023-04-08T07:29:24;68584.43;;;9.46;88.58
22930;BME280;11630;42.660;23.292;2023-04-08T07:31:55;68590.68;;;9.53;86.56
22930;BME280;11630;42.660;23.292;2023-04-08T07:34:27;68594.23;;;9.63;85.85
22930;BME280;11630;42.660;23.292;2023-04-08T07:36:58;68609.97;;;9.72;84.88
22930;BME280;11630;42.660;23.292;2023-04-08T07:39:29;68627.93;;;9.93;84.80
22930;BME280;11630;42.660;23.292;2023-04-08T07:42:00;68596.94;;;9.68;84.97
22930;BME280;11630;42.660;23.292;2023-04-08T07:44:30;68579.27;;;9.45;85.87
22930;BME280;11630;42.660;23.292;2023-04-08T07:47:03;68618.41;;;9.86;84.52
22930;BME280;11630;42.660;23.292;2023-04-08T07:49:37;68552.39;;;9.24;87.21
22930;BME280;11630;42.660;23.292;2023-04-08T07:52:08;68603.98;;;9.67;85.33
22930;BME280;11630;42.660;23.292;2023-04-08T07:54:39;68619.20;;;9.81;84.34
22930;BME280;11630;42.660;23.292;2023-04-08T07:57:10;68584.44;;;9.51;86.90
22930;BME280;11630;42.660;23.292;2023-04-08T07:59:41;68577.63;;;9.44;85.98
22930;BME280;11630;42.660;23.292;2023-04-08T08:02:12;68609.70;;;9.73;85.05
22930;BME280;11630;42.660;23.292;2023-04-08T08:04:43;68616.23;;;9.82;85.06
22930;BME280;11630;42.660;23.292;2023-04-08T08:07:14;68608.34;;;9.73;85.85
22930;BME280;11630;42.660;23.292;2023-04-08T08:09:45;68577.09;;;9.46;86.73
22930;BME280;11630;42.660;23.292;2023-04-08T08:12:16;68621.12;;;9.84;86.48
22930;BME280;11630;42.660;23.292;2023-04-08T08:14:46;68615.42;;;9.80;86.92
22930;BME280;11630;42.660;23.292;2023-04-08T08:17:17;68654.85;;;10.14;84.26
22930;BME280;11630;42.660;23.292;2023-04-08T08:19:48;68592.87;;;9.60;87.58
22930;BME280;11630;42.660;23.292;2023-04-08T08:22:19;68603.75;;;9.75;87.91
22930;BME280;11630;42.660;23.292;2023-04-08T08:24:53;68605.11;;;9.73;86.88
22930;BME280;11630;42.660;23.292;2023-04-08T08:27:20;68581.72;;;9.49;88.83
22930;BME280;11630;42.660;23.292;2023-04-08T08:29:52;68591.78;;;9.59;88.94
22930;BME280;11630;42.660;23.292;2023-04-08T08:32:23;68617.32;;;9.85;87.14
22930;BME280;11630;42.660;23.292;2023-04-08T08:34:54;68626.02;;;9.93;86.27
22930;BME280;11630;42.660;23.292;2023-04-08T08:37:25;68603.19;;;9.70;87.75
22930;BME280;11630;42.660;23.292;2023-04-08T08:39:55;68637.19;;;9.99;87.24
22930;BME280;11630;42.660;23.292;2023-04-08T08:42:25;68622.77;;;9.90;88.14
22930;BME280;11630;42.660;23.292;2023-04-08T08:44:56;68628.47;;;9.94;88.29
22930;BME280;11630;42.660;23.292;2023-04-08T08:47:27;68620.59;;;9.88;89.28
22930;BME280;11630;42.660;23.292;2023-04-08T08:49:57;68664.11;;;10.28;87.26
22930;BME280;11630;42.660;23.292;2023-04-08T08:52:29;68676.59;;;10.37;85.12
22930;BME280;11630;42.660;23.292;2023-04-08T08:55:00;68661.38;;;10.20;83.61
22930;BME280;11630;42.660;23.292;2023-04-08T08:57:31;68671.44;;;10.33;82.09
22930;BME280;11630;42.660;23.292;2023-04-08T09:00:02;68697.28;;;10.56;81.45
22930;BME280;11630;42.660;23.292;2023-04-08T09:02:33;68732.38;;;10.86;80.73
22930;BME280;11630;42.660;23.292;2023-04-08T09:05:04;68739.42;;;10.85;81.51
22930;BME280;11630;42.660;23.292;2023-04-08T09:07:38;68747.05;;;11.00;81.60
22930;BME280;11630;42.660;23.292;2023-04-08T09:10:09;68785.42;;;11.31;79.93
22930;BME280;11630;42.660;23.292;2023-04-08T09:12:55;68808.86;;;11.62;77.95
22930;BME280;11630;42.660;23.292;2023-04-08T09:15:25;68795.23;;;11.50;77.75
22930;BME280;11630;42.660;23.292;2023-04-08T09:17:56;68837.44;;;11.85;78.03
22930;BME280;11630;42.660;23.292;2023-04-08T09:20:27;68824.91;;;11.68;76.81
22930;BME280;11630;42.660;23.292;2023-04-08T09:23:01;68828.45;;;11.78;77.08
22930;BME280;11630;42.660;23.292;2023-04-08T09:25:32;68862.22;;;12.04;74.55
22930;BME280;11630;42.660;23.292;2023-04-08T09:28:04;68814.30;;;11.62;78.84
22930;BME280;11630;42.660;23.292;2023-04-08T09:30:35;68869.31;;;12.15;74.69
22930;BME280;11630;42.660;23.292;2023-04-08T09:33:06;68872.30;;;12.14;74.48
22930;BME280;11630;42.660;23.292;2023-04-08T09:35:37;68886.99;;;12.27;74.95
22930;BME280;11630;42.660;23.292;2023-04-08T09:38:08;68949.93;;;12.84;69.25
22930;BME280;11630;42.660;23.292;2023-04-08T09:40:40;68990.31;;;13.23;69.37
22930;BME280;11630;42.660;23.292;2023-04-08T09:43:13;69087.69;;;14.10;64.59
22930;BME280;11630;42.660;23.292;2023-04-08T09:45:45;69071.03;;;13.96;63.67
22930;BME280;11630;42.660;23.292;2023-04-08T09:48:21;69101.04;;;14.31;61.19
22930;BME280;11630;42.660;23.292;2023-04-08T09:50:52;69068.56;;;13.90;61.16
22930;BME280;11630;42.660;23.292;2023-04-08T09:53:33;69091.52;;;14.11;60.10
22930;BME280;11630;42.660;23.292;2023-04-08T09:56:06;69074.29;;;13.99;58.99
22930;BME280;11630;42.660;23.292;2023-04-08T09:58:38;69045.66;;;13.77;59.33
22930;BME280;11630;42.660;23.292;2023-04-08T10:01:12;69068.56;;;13.90;60.18
22930;BME280;11630;42.660;23.292;2023-04-08T10:03:48;69107.05;;;14.29;58.80
22930;BME280;11630;42.660;23.292;2023-04-08T10:06:19;69008.83;;;13.40;63.10
22930;BME280;11630;42.660;23.292;2023-04-08T10:08:51;69037.20;;;13.66;61.82
22930;BME280;11630;42.660;23.292;2023-04-08T10:11:23;68982.13;;;13.13;66.64
22930;BME280;11630;42.660;23.292;2023-04-08T10:13:54;69018.39;;;13.45;66.66
22930;BME280;11630;42.660;23.292;2023-04-08T10:16:25;68966.59;;;13.03;67.88
22930;BME280;11630;42.660;23.292;2023-04-08T10:18:56;68934.14;;;12.69;66.99
22930;BME280;11630;42.660;23.292;2023-04-08T10:21:39;68978.85;;;13.05;67.87
22930;BME280;11630;42.660;23.292;2023-04-08T10:24:10;68965.48;;;12.94;67.99
22930;BME280;11630;42.660;23.292;2023-04-08T10:26:43;68942.59;;;12.78;70.56
22930;BME280;11630;42.660;23.292;2023-04-08T10:31:57;68918.05;;;12.58;70.40
22930;BME280;11630;42.660;23.292;2023-04-08T10:34:29;68860.58;;;12.02;72.56
22930;BME280;11630;42.660;23.292;2023-04-08T10:37:00;68872.56;;;12.16;71.16
22930;BME280;11630;42.660;23.292;2023-04-08T10:39:30;68904.16;;;12.42;71.02
22930;BME280;11630;42.660;23.292;2023-04-08T10:42:01;68873.13;;;12.16;72.76
22930;BME280;11630;42.660;23.292;2023-04-08T10:44:33;68902.53;;;12.40;71.68
22930;BME280;11630;42.660;23.292;2023-04-08T10:47:04;68963.59;;;12.94;70.45
22930;BME280;11630;42.660;23.292;2023-04-08T10:49:36;68960.30;;;12.91;68.28
22930;BME280;11630;42.660;23.292;2023-04-08T10:52:07;68937.95;;;12.73;69.47
22930;BME280;11630;42.660;23.292;2023-04-08T10:54:38;68890.00;;;12.34;70.14
22930;BME280;11630;42.660;23.292;2023-04-08T10:57:09;68890.55;;;12.34;72.18
22930;BME280;11630;42.660;23.292;2023-04-08T10:59:40;68940.94;;;12.79;71.39
22930;BME280;11630;42.660;23.292;2023-04-08T11:02:14;68912.61;;;12.53;71.33
22930;BME280;11630;42.660;23.292;2023-04-08T11:04:45;68947.50;;;12.83;68.75
22930;BME280;11630;42.660;23.292;2023-04-08T11:07:18;68933.59;;;12.71;68.08
22930;BME280;11630;42.660;23.292;2023-04-08T11:09:51;68876.38;;;12.17;70.55
22930;BME280;11630;42.660;23.292;2023-04-08T11:12:23;68882.64;;;12.24;70.91
22930;BME280;11630;42.660;23.292;2023-04-08T11:14:53;68915.33;;;12.58;70.80
22930;BME280;11630;42.660;23.292;2023-04-08T11:17:24;68914.24;;;12.52;70.44
22930;BME280;11630;42.660;23.292;2023-04-08T11:19:56;68932.50;;;12.70;69.54
22930;BME280;11630;42.660;23.292;2023-04-08T11:22:27;68965.77;;;13.03;67.72
22930;BME280;11630;42.660;23.292;2023-04-08T11:24:59;69008.84;;;13.32;68.11
22930;BME280;11630;42.660;23.292;2023-04-08T11:27:30;69029.02;;;13.56;65.65
22930;BME280;11630;42.660;23.292;2023-04-08T11:30:07;68909.63;;;12.49;65.25
22930;BME280;11630;42.660;23.292;2023-04-08T11:32:39;68912.34;;;12.49;67.40
22930;BME280;11630;42.660;23.292;2023-04-08T11:35:09;68961.69;;;12.93;65.34
22930;BME280;11630;42.660;23.292;2023-04-08T11:37:41;68946.67;;;12.78;64.02
22930;BME280;11630;42.660;23.292;2023-04-08T11:40:18;68984.84;;;13.15;63.45
22930;BME280;11630;42.660;23.292;2023-04-08T11:42:44;69018.39;;;13.45;63.40
22930;BME280;11630;42.660;23.292;2023-04-08T11:45:16;68995.47;;;13.24;59.66
22930;BME280;11630;42.660;23.292;2023-04-08T11:47:48;69005.28;;;13.35;58.73
22930;BME280;11630;42.660;23.292;2023-04-08T11:50:25;69001.20;;;13.33;57.32
22930;BME280;11630;42.660;23.292;2023-04-08T11:52:56;68993.30;;;13.27;56.71
22930;BME280;11630;42.660;23.292;2023-04-08T11:55:33;68922.96;;;12.60;60.02
22930;BME280;11630;42.660;23.292;2023-04-08T11:58:04;68934.41;;;12.73;61.35
22930;BME280;11630;42.660;23.292;2023-04-08T12:00:35;68919.42;;;12.53;61.68
22930;BME280;11630;42.660;23.292;2023-04-08T12:03:10;68923.25;;;12.64;62.51
22930;BME280;11630;42.660;23.292;2023-04-08T12:05:41;68948.86;;;12.85;61.20
22930;BME280;11630;42.660;23.292;2023-04-08T12:08:12;68910.69;;;12.50;63.22
22930;BME280;11630;42.660;23.292;2023-04-08T12:10:43;68929.77;;;12.63;63.44
22930;BME280;11630;42.660;23.292;2023-04-08T12:13:14;68854.33;;;12.00;66.61
22930;BME280;11630;42.660;23.292;2023-04-08T12:15:45;68868.75;;;12.10;66.94
22930;BME280;11630;42.660;23.292;2023-04-08T12:18:16;68862.48;;;12.05;66.79
22930;BME280;11630;42.660;23.292;2023-04-08T12:20:47;68862.22;;;12.09;66.77
22930;BME280;11630;42.660;23.292;2023-04-08T12:23:18;68888.38;;;12.30;64.64
22930;BME280;11630;42.660;23.292;2023-04-08T12:25:48;68879.92;;;12.21;64.68
22930;BME280;11630;42.660;23.292;2023-04-08T12:28:19;68874.73;;;12.08;67.64
22930;BME280;11630;42.660;23.292;2023-04-08T12:30:50;68848.60;;;11.94;65.63
22930;BME280;11630;42.660;23.292;2023-04-08T12:33:21;68864.67;;;12.05;66.13
22930;BME280;11630;42.660;23.292;2023-04-08T12:35:52;68860.59;;;12.07;68.88
22930;BME280;11630;42.660;23.292;2023-04-08T12:38:23;68840.70;;;11.90;68.16
22930;BME280;11630;42.660;23.292;2023-04-08T12:40:54;68851.32;;;11.96;66.97
22930;BME280;11630;42.660;23.292;2023-04-08T12:43:26;68819.47;;;11.71;68.25
22930;BME280;11630;42.660;23.292;2023-04-08T12:45:57;68806.13;;;11.57;68.29
22930;BME280;11630;42.660;23.292;2023-04-08T12:48:27;68806.13;;;11.55;67.68
22930;BME280;11630;42.660;23.292;2023-04-08T12:50:58;68803.41;;;11.55;68.45
22930;BME280;11630;42.660;23.292;2023-04-08T12:53:28;68787.32;;;11.34;70.40
22930;BME280;11630;42.660;23.292;2023-04-08T12:55:59;68770.45;;;11.24;70.29
22930;BME280;11630;42.660;23.292;2023-04-08T12:58:29;68766.91;;;11.19;70.73
22930;BME280;11630;42.660;23.292;2023-04-08T13:01:01;68767.47;;;11.22;70.65
22930;BME280;11630;42.660;23.292;2023-04-08T13:03:31;68772.38;;;11.24;70.76
22930;BME280;11630;42.660;23.292;2023-04-08T13:06:02;68777.54;;;11.30;71.15
22930;BME280;11630;42.660;23.292;2023-04-08T13:08:33;68781.33;;;11.29;70.17
22930;BME280;11630;42.660;23.292;2023-04-08T13:11:04;68809.40;;;11.58;69.67
22930;BME280;11630;42.660;23.292;2023-04-08T13:13:35;68827.36;;;11.77;69.02
22930;BME280;11630;42.660;23.292;2023-04-08T13:16:05;68821.12;;;11.75;72.51
22930;BME280;11630;42.660;23.292;2023-04-08T13:18:35;68863.31;;;12.10;73.30
22930;BME280;11630;42.660;23.292;2023-04-08T13:21:06;68856.49;;;12.02;74.21
22930;BME280;11630;42.660;23.292;2023-04-08T13:23:37;68844.52;;;11.94;78.34